sensor_id;sensor_type;location;lat;lon;timestamp;P1;durP1;ratioP1;P2;durP2;ratioP2
67986;SDS011;54767;53.800;15.956;2022-12-07T00:01:45;2.10;;;1.90;;
67986;SDS011;54767;53.800;15.956;2022-12-07T00:04:15;2.10;;;1.90;;
67986;SDS011;54767;53.800;15.956;2022-12-07T00:06:46;1.80;;;1.70;;
67986;SDS011;54767;53.800;15.956;2022-12-07T00:09:20;2.30;;;2.10;;
67986;SDS011;54767;53.800;15.956;2022-12-07T00:11:49;2.40;;;2.10;;
67986;SDS011;54767;53.800;15.956;2022-12-07T00:14:19;2.80;;;2.20;;
67986;SDS011;54767;53.800;15.956;2022-12-07T00:16:48;2.40;;;2.20;;
67986;SDS011;54767;53.800;15.956;2022-12-07T00:19:19;2.20;;;2.00;;
67986;SDS011;54767;53.800;15.956;2022-12-07T00:21:47;2.80;;;2.20;;
67986;SDS011;54767;53.800;15.956;2022-12-07T00:24:16;2.60;;;2.40;;
67986;SDS011;54767;53.800;15.956;2022-12-07T00:26:44;2.40;;;2.20;;
67986;SDS011;54767;53.800;15.956;2022-12-07T00:29:17;2.40;;;2.20;;
67986;SDS011;54767;53.800;15.956;2022-12-07T00:31:47;3.80;;;2.70;;
67986;SDS011;54767;53.800;15.956;2022-12-07T00:34:17;3.30;;;2.90;;
67986;SDS011;54767;53.800;15.956;2022-12-07T00:36:47;4.10;;;2.90;;
67986;SDS011;54767;53.800;15.956;2022-12-07T00:39:16;4.10;;;3.30;;
67986;SDS011;54767;53.800;15.956;2022-12-07T00:41:45;5.10;;;3.50;;
67986;SDS011;54767;53.800;15.956;2022-12-07T00:44:13;5.50;;;3.50;;
67986;SDS011;54767;53.800;15.956;2022-12-07T00:46:41;4.60;;;3.30;;
67986;SDS011;54767;53.800;15.956;2022-12-07T00:49:09;3.30;;;3.00;;
67986;SDS011;54767;53.800;15.956;2022-12-07T00:51:37;3.20;;;2.80;;
67986;SDS011;54767;53.800;15.956;2022-12-07T00:54:06;3.00;;;2.70;;
67986;SDS011;54767;53.800;15.956;2022-12-07T00:56:34;3.20;;;2.60;;
67986;SDS011;54767;53.800;15.956;2022-12-07T00:59:02;2.40;;;2.20;;
67986;SDS011;54767;53.800;15.956;2022-12-07T01:01:33;5.10;;;2.30;;
67986;SDS011;54767;53.800;15.956;2022-12-07T01:04:03;2.60;;;2.40;;
67986;SDS011;54767;53.800;15.956;2022-12-07T01:06:32;1.70;;;1.60;;
67986;SDS011;54767;53.800;15.956;2022-12-07T01:09:00;1.60;;;1.50;;
67986;SDS011;54767;53.800;15.956;2022-12-07T01:11:29;1.50;;;1.30;;
67986;SDS011;54767;53.800;15.956;2022-12-07T01:13:59;2.70;;;1.80;;
67986;SDS011;54767;53.800;15.956;2022-12-07T01:16:29;1.50;;;1.40;;
67986;SDS011;54767;53.800;15.956;2022-12-07T01:18:59;1.60;;;1.50;;
67986;SDS011;54767;53.800;15.956;2022-12-07T01:21:29;2.10;;;1.80;;
67986;SDS011;54767;53.800;15.956;2022-12-07T01:24:05;1.60;;;1.50;;
67986;SDS011;54767;53.800;15.956;2022-12-07T01:26:35;1.90;;;1.40;;
67986;SDS011;54767;53.800;15.956;2022-12-07T01:29:03;1.60;;;1.50;;
67986;SDS011;54767;53.800;15.956;2022-12-07T01:31:31;1.60;;;1.50;;
67986;SDS011;54767;53.800;15.956;2022-12-07T01:34:00;1.70;;;1.60;;
67986;SDS011;54767;53.800;15.956;2022-12-07T01:36:29;2.00;;;1.60;;
67986;SDS011;54767;53.800;15.956;2022-12-07T01:39:00;2.40;;;2.20;;
67986;SDS011;54767;53.800;15.956;2022-12-07T01:41:32;1.90;;;1.80;;
67986;SDS011;54767;53.800;15.956;2022-12-07T01:46:40;2.30;;;2.00;;
67986;SDS011;54767;53.800;15.956;2022-12-07T01:49:21;3.20;;;2.40;;
67986;SDS011;54767;53.800;15.956;2022-12-07T01:52:16;3.90;;;2.60;;
67986;SDS011;54767;53.800;15.956;2022-12-07T01:54:51;3.20;;;2.60;;
67986;SDS011;54767;53.800;15.956;2022-12-07T01:57:24;3.50;;;3.10;;
67986;SDS011;54767;53.800;15.956;2022-12-07T01:59:53;3.40;;;3.10;;
67986;SDS011;54767;53.800;15.956;2022-12-07T02:02:25;3.90;;;3.10;;
67986;SDS011;54767;53.800;15.956;2022-12-07T02:05:00;3.40;;;2.90;;
67986;SDS011;54767;53.800;15.956;2022-12-07T02:07:31;4.60;;;3.30;;
67986;SDS011;54767;53.800;15.956;2022-12-07T02:18:16;3.20;;;2.90;;
67986;SDS011;54767;53.800;15.956;2022-12-07T02:23:49;3.80;;;3.00;;
67986;SDS011;54767;53.800;15.956;2022-12-07T02:29:13;3.40;;;3.00;;
67986;SDS011;54767;53.800;15.956;2022-12-07T02:31:47;3.90;;;2.90;;
67986;SDS011;54767;53.800;15.956;2022-12-07T02:37:15;4.50;;;2.70;;
67986;SDS011;54767;53.800;15.956;2022-12-07T02:39:57;5.00;;;3.10;;
67986;SDS011;54767;53.800;15.956;2022-12-07T02:42:33;3.90;;;3.10;;
67986;SDS011;54767;53.800;15.956;2022-12-07T02:45:06;4.00;;;3.20;;
67986;SDS011;54767;53.800;15.956;2022-12-07T02:47:36;4.00;;;3.30;;
67986;SDS011;54767;53.800;15.956;2022-12-07T02:50:06;4.90;;;3.60;;
67986;SDS011;54767;53.800;15.956;2022-12-07T02:52:35;5.60;;;3.60;;
67986;SDS011;54767;53.800;15.956;2022-12-07T02:55:03;8.90;;;3.70;;
67986;SDS011;54767;53.800;15.956;2022-12-07T02:57:39;5.20;;;3.80;;
67986;SDS011;54767;53.800;15.956;2022-12-07T03:00:20;5.10;;;3.60;;
67986;SDS011;54767;53.800;15.956;2022-12-07T03:03:06;4.70;;;3.80;;
67986;SDS011;54767;53.800;15.956;2022-12-07T03:08:21;7.20;;;4.20;;
67986;SDS011;54767;53.800;15.956;2022-12-07T03:16:33;5.40;;;3.70;;
67986;SDS011;54767;53.800;15.956;2022-12-07T03:19:24;5.10;;;3.70;;
67986;SDS011;54767;53.800;15.956;2022-12-07T03:21:56;5.90;;;4.30;;
67986;SDS011;54767;53.800;15.956;2022-12-07T03:24:29;6.10;;;4.20;;
67986;SDS011;54767;53.800;15.956;2022-12-07T03:27:06;5.60;;;3.90;;
67986;SDS011;54767;53.800;15.956;2022-12-07T03:29:46;6.30;;;4.10;;
67986;SDS011;54767;53.800;15.956;2022-12-07T03:32:43;6.20;;;3.80;;
67986;SDS011;54767;53.800;15.956;2022-12-07T03:35:25;7.80;;;4.20;;
67986;SDS011;54767;53.800;15.956;2022-12-07T03:37:59;7.60;;;4.60;;
67986;SDS011;54767;53.800;15.956;2022-12-07T03:40:37;8.30;;;5.20;;
67986;SDS011;54767;53.800;15.956;2022-12-07T03:43:10;8.00;;;4.80;;
67986;SDS011;54767;53.800;15.956;2022-12-07T03:45:40;9.60;;;5.50;;
67986;SDS011;54767;53.800;15.956;2022-12-07T03:48:33;7.20;;;4.60;;
67986;SDS011;54767;53.800;15.956;2022-12-07T03:51:18;7.80;;;5.30;;
67986;SDS011;54767;53.800;15.956;2022-12-07T03:53:52;8.80;;;4.70;;
67986;SDS011;54767;53.800;15.956;2022-12-07T03:56:26;9.30;;;5.60;;
67986;SDS011;54767;53.800;15.956;2022-12-07T03:58:57;8.00;;;5.60;;
67986;SDS011;54767;53.800;15.956;2022-12-07T04:01:25;10.60;;;6.10;;
67986;SDS011;54767;53.800;15.956;2022-12-07T04:03:53;9.30;;;5.30;;
67986;SDS011;54767;53.800;15.956;2022-12-07T04:06:21;9.00;;;5.50;;
67986;SDS011;54767;53.800;15.956;2022-12-07T04:08:50;10.10;;;5.10;;
67986;SDS011;54767;53.800;15.956;2022-12-07T04:11:18;7.50;;;4.90;;
67986;SDS011;54767;53.800;15.956;2022-12-07T04:13:46;8.70;;;5.10;;
67986;SDS011;54767;53.800;15.956;2022-12-07T04:16:32;6.40;;;4.70;;
67986;SDS011;54767;53.800;15.956;2022-12-07T04:19:06;8.90;;;5.50;;
67986;SDS011;54767;53.800;15.956;2022-12-07T04:21:34;8.20;;;5.30;;
67986;SDS011;54767;53.800;15.956;2022-12-07T04:24:03;9.00;;;5.80;;
67986;SDS011;54767;53.800;15.956;2022-12-07T04:26:31;9.70;;;5.60;;
67986;SDS011;54767;53.800;15.956;2022-12-07T04:28:59;9.40;;;5.50;;
67986;SDS011;54767;53.800;15.956;2022-12-07T04:31:34;8.80;;;5.30;;
67986;SDS011;54767;53.800;15.956;2022-12-07T04:34:03;9.10;;;5.10;;
67986;SDS011;54767;53.800;15.956;2022-12-07T04:36:32;8.80;;;5.70;;
67986;SDS011;54767;53.800;15.956;2022-12-07T04:39:01;8.00;;;5.50;;
67986;SDS011;54767;53.800;15.956;2022-12-07T04:41:30;7.30;;;5.00;;
67986;SDS011;54767;53.800;15.956;2022-12-07T04:44:00;9.90;;;5.70;;
67986;SDS011;54767;53.800;15.956;2022-12-07T04:46:31;9.70;;;5.50;;
67986;SDS011;54767;53.800;15.956;2022-12-07T04:48:59;9.70;;;6.00;;
67986;SDS011;54767;53.800;15.956;2022-12-07T04:51:28;10.50;;;5.50;;
67986;SDS011;54767;53.800;15.956;2022-12-07T04:53:57;8.80;;;5.40;;
67986;SDS011;54767;53.800;15.956;2022-12-07T04:56:25;8.10;;;5.20;;
67986;SDS011;54767;53.800;15.956;2022-12-07T04:58:54;8.90;;;5.50;;
67986;SDS011;54767;53.800;15.956;2022-12-07T05:01:23;9.30;;;5.30;;
67986;SDS011;54767;53.800;15.956;2022-12-07T05:03:51;8.80;;;5.50;;
67986;SDS011;54767;53.800;15.956;2022-12-07T05:06:20;9.70;;;5.30;;
67986;SDS011;54767;53.800;15.956;2022-12-07T05:08:48;8.40;;;5.20;;
67986;SDS011;54767;53.800;15.956;2022-12-07T05:11:16;7.80;;;5.20;;
67986;SDS011;54767;53.800;15.956;2022-12-07T05:14:04;10.20;;;5.80;;
67986;SDS011;54767;53.800;15.956;2022-12-07T05:16:41;9.70;;;5.20;;
67986;SDS011;54767;53.800;15.956;2022-12-07T05:19:10;8.60;;;5.10;;
67986;SDS011;54767;53.800;15.956;2022-12-07T05:21:39;9.80;;;5.50;;
67986;SDS011;54767;53.800;15.956;2022-12-07T05:24:08;9.50;;;5.60;;
67986;SDS011;54767;53.800;15.956;2022-12-07T05:26:39;10.40;;;5.80;;
67986;SDS011;54767;53.800;15.956;2022-12-07T05:29:10;8.50;;;5.00;;
67986;SDS011;54767;53.800;15.956;2022-12-07T05:31:40;8.60;;;5.00;;
67986;SDS011;54767;53.800;15.956;2022-12-07T05:34:09;10.00;;;5.30;;
67986;SDS011;54767;53.800;15.956;2022-12-07T05:36:37;8.70;;;5.50;;
67986;SDS011;54767;53.800;15.956;2022-12-07T05:39:07;8.70;;;5.30;;
67986;SDS011;54767;53.800;15.956;2022-12-07T05:41:36;9.70;;;5.60;;
67986;SDS011;54767;53.800;15.956;2022-12-07T05:44:23;8.80;;;5.30;;
67986;SDS011;54767;53.800;15.956;2022-12-07T05:46:51;10.20;;;5.70;;
67986;SDS011;54767;53.800;15.956;2022-12-07T05:49:19;10.80;;;6.20;;
67986;SDS011;54767;53.800;15.956;2022-12-07T05:51:47;10.80;;;5.90;;
67986;SDS011;54767;53.800;15.956;2022-12-07T05:54:15;10.50;;;5.60;;
67986;SDS011;54767;53.800;15.956;2022-12-07T05:56:44;10.70;;;5.60;;
67986;SDS011;54767;53.800;15.956;2022-12-07T05:59:12;8.20;;;5.50;;
67986;SDS011;54767;53.800;15.956;2022-12-07T06:01:56;11.80;;;5.10;;
67986;SDS011;54767;53.800;15.956;2022-12-07T06:04:27;8.70;;;5.40;;
67986;SDS011;54767;53.800;15.956;2022-12-07T06:06:58;10.60;;;5.60;;
67986;SDS011;54767;53.800;15.956;2022-12-07T06:09:27;10.90;;;6.20;;
67986;SDS011;54767;53.800;15.956;2022-12-07T06:11:56;12.10;;;6.40;;
67986;SDS011;54767;53.800;15.956;2022-12-07T06:14:44;10.80;;;6.10;;
67986;SDS011;54767;53.800;15.956;2022-12-07T06:17:13;10.00;;;6.30;;
67986;SDS011;54767;53.800;15.956;2022-12-07T06:19:41;10.90;;;6.20;;
67986;SDS011;54767;53.800;15.956;2022-12-07T06:22:10;12.00;;;6.00;;
67986;SDS011;54767;53.800;15.956;2022-12-07T06:24:39;11.80;;;6.30;;
67986;SDS011;54767;53.800;15.956;2022-12-07T06:27:08;12.30;;;6.40;;
67986;SDS011;54767;53.800;15.956;2022-12-07T06:29:37;10.80;;;6.60;;
67986;SDS011;54767;53.800;15.956;2022-12-07T06:32:05;10.60;;;6.00;;
67986;SDS011;54767;53.800;15.956;2022-12-07T06:34:34;12.20;;;6.10;;
67986;SDS011;54767;53.800;15.956;2022-12-07T06:37:02;11.30;;;6.60;;
67986;SDS011;54767;53.800;15.956;2022-12-07T06:39:31;12.20;;;6.80;;
67986;SDS011;54767;53.800;15.956;2022-12-07T06:42:00;10.70;;;5.90;;
67986;SDS011;54767;53.800;15.956;2022-12-07T06:44:28;13.60;;;6.50;;
67986;SDS011;54767;53.800;15.956;2022-12-07T06:46:56;15.90;;;8.00;;
67986;SDS011;54767;53.800;15.956;2022-12-07T06:49:44;21.70;;;9.30;;
67986;SDS011;54767;53.800;15.956;2022-12-07T06:52:12;20.90;;;9.00;;
67986;SDS011;54767;53.800;15.956;2022-12-07T06:54:41;26.10;;;10.10;;
67986;SDS011;54767;53.800;15.956;2022-12-07T06:57:09;27.40;;;9.90;;
67986;SDS011;54767;53.800;15.956;2022-12-07T06:59:37;27.90;;;10.70;;
67986;SDS011;54767;53.800;15.956;2022-12-07T07:02:05;30.70;;;12.00;;
67986;SDS011;54767;53.800;15.956;2022-12-07T07:04:34;31.30;;;11.40;;
67986;SDS011;54767;53.800;15.956;2022-12-07T07:07:02;28.60;;;11.90;;
67986;SDS011;54767;53.800;15.956;2022-12-07T07:09:30;30.20;;;11.40;;
67986;SDS011;54767;53.800;15.956;2022-12-07T07:11:58;26.70;;;10.80;;
67986;SDS011;54767;53.800;15.956;2022-12-07T07:14:26;23.90;;;10.00;;
67986;SDS011;54767;53.800;15.956;2022-12-07T07:16:55;24.80;;;10.80;;
67986;SDS011;54767;53.800;15.956;2022-12-07T07:19:23;26.40;;;10.30;;
67986;SDS011;54767;53.800;15.956;2022-12-07T07:21:51;22.50;;;9.60;;
67986;SDS011;54767;53.800;15.956;2022-12-07T07:24:20;16.20;;;7.90;;
67986;SDS011;54767;53.800;15.956;2022-12-07T07:26:48;20.20;;;8.90;;
67986;SDS011;54767;53.800;15.956;2022-12-07T07:29:16;18.80;;;8.10;;
67986;SDS011;54767;53.800;15.956;2022-12-07T07:31:44;18.90;;;8.10;;
67986;SDS011;54767;53.800;15.956;2022-12-07T07:34:13;20.70;;;8.40;;
67986;SDS011;54767;53.800;15.956;2022-12-07T07:36:41;20.00;;;7.80;;
67986;SDS011;54767;53.800;15.956;2022-12-07T07:39:09;17.80;;;7.90;;
67986;SDS011;54767;53.800;15.956;2022-12-07T07:41:40;15.10;;;7.10;;
67986;SDS011;54767;53.800;15.956;2022-12-07T07:44:09;14.90;;;6.80;;
67986;SDS011;54767;53.800;15.956;2022-12-07T07:46:38;14.60;;;7.20;;
67986;SDS011;54767;53.800;15.956;2022-12-07T07:49:06;14.60;;;6.20;;
67986;SDS011;54767;53.800;15.956;2022-12-07T07:51:34;13.00;;;6.30;;
67986;SDS011;54767;53.800;15.956;2022-12-07T07:54:03;13.70;;;6.40;;
67986;SDS011;54767;53.800;15.956;2022-12-07T07:56:31;11.20;;;6.30;;
67986;SDS011;54767;53.800;15.956;2022-12-07T07:59:00;10.10;;;5.70;;
67986;SDS011;54767;53.800;15.956;2022-12-07T08:01:28;6.30;;;4.60;;
67986;SDS011;54767;53.800;15.956;2022-12-07T08:03:56;8.60;;;5.10;;
67986;SDS011;54767;53.800;15.956;2022-12-07T08:06:24;8.20;;;4.90;;
67986;SDS011;54767;53.800;15.956;2022-12-07T08:08:58;7.00;;;4.60;;
67986;SDS011;54767;53.800;15.956;2022-12-07T08:11:27;7.60;;;4.60;;
67986;SDS011;54767;53.800;15.956;2022-12-07T08:13:55;9.30;;;5.00;;
67986;SDS011;54767;53.800;15.956;2022-12-07T08:16:23;7.90;;;5.60;;
67986;SDS011;54767;53.800;15.956;2022-12-07T08:18:51;8.50;;;4.70;;
67986;SDS011;54767;53.800;15.956;2022-12-07T08:21:20;7.80;;;4.90;;
67986;SDS011;54767;53.800;15.956;2022-12-07T08:23:48;4.70;;;3.90;;
67986;SDS011;54767;53.800;15.956;2022-12-07T08:26:16;8.60;;;4.50;;
67986;SDS011;54767;53.800;15.956;2022-12-07T08:28:45;7.40;;;4.70;;
67986;SDS011;54767;53.800;15.956;2022-12-07T08:31:15;8.20;;;5.00;;
67986;SDS011;54767;53.800;15.956;2022-12-07T08:33:46;8.80;;;5.00;;
67986;SDS011;54767;53.800;15.956;2022-12-07T08:36:15;7.00;;;4.40;;
67986;SDS011;54767;53.800;15.956;2022-12-07T08:38:44;7.70;;;4.90;;
67986;SDS011;54767;53.800;15.956;2022-12-07T08:41:33;7.40;;;4.10;;
67986;SDS011;54767;53.800;15.956;2022-12-07T08:44:01;7.50;;;4.50;;
67986;SDS011;54767;53.800;15.956;2022-12-07T08:46:37;8.60;;;4.90;;
67986;SDS011;54767;53.800;15.956;2022-12-07T08:49:13;8.50;;;4.80;;
67986;SDS011;54767;53.800;15.956;2022-12-07T08:51:42;9.60;;;5.50;;
67986;SDS011;54767;53.800;15.956;2022-12-07T08:54:12;11.00;;;5.60;;
67986;SDS011;54767;53.800;15.956;2022-12-07T08:56:44;9.70;;;5.60;;
67986;SDS011;54767;53.800;15.956;2022-12-07T09:01:43;12.40;;;5.60;;
67986;SDS011;54767;53.800;15.956;2022-12-07T09:04:11;10.20;;;5.50;;
67986;SDS011;54767;53.800;15.956;2022-12-07T09:06:40;9.60;;;5.80;;
67986;SDS011;54767;53.800;15.956;2022-12-07T09:09:08;11.40;;;5.90;;
67986;SDS011;54767;53.800;15.956;2022-12-07T09:11:38;10.60;;;6.00;;
67986;SDS011;54767;53.800;15.956;2022-12-07T09:14:07;9.40;;;5.50;;
67986;SDS011;54767;53.800;15.956;2022-12-07T09:16:35;10.70;;;5.80;;
67986;SDS011;54767;53.800;15.956;2022-12-07T09:19:03;11.30;;;6.10;;
67986;SDS011;54767;53.800;15.956;2022-12-07T09:21:31;9.70;;;5.30;;
67986;SDS011;54767;53.800;15.956;2022-12-07T09:24:00;10.80;;;5.60;;
67986;SDS011;54767;53.800;15.956;2022-12-07T09:26:28;11.40;;;5.70;;
67986;SDS011;54767;53.800;15.956;2022-12-07T09:28:57;10.40;;;5.70;;
67986;SDS011;54767;53.800;15.956;2022-12-07T09:31:25;11.80;;;6.30;;
67986;SDS011;54767;53.800;15.956;2022-12-07T09:33:58;10.60;;;5.60;;
67986;SDS011;54767;53.800;15.956;2022-12-07T09:36:27;10.00;;;5.80;;
67986;SDS011;54767;53.800;15.956;2022-12-07T09:38:56;11.80;;;6.20;;
67986;SDS011;54767;53.800;15.956;2022-12-07T09:41:25;10.60;;;5.70;;
67986;SDS011;54767;53.800;15.956;2022-12-07T09:44:00;11.40;;;6.00;;
67986;SDS011;54767;53.800;15.956;2022-12-07T09:46:34;11.20;;;6.20;;
67986;SDS011;54767;53.800;15.956;2022-12-07T09:49:09;12.00;;;6.10;;
67986;SDS011;54767;53.800;15.956;2022-12-07T09:51:41;14.80;;;6.90;;
67986;SDS011;54767;53.800;15.956;2022-12-07T09:54:14;12.80;;;6.80;;
67986;SDS011;54767;53.800;15.956;2022-12-07T09:56:44;13.20;;;6.30;;
67986;SDS011;54767;53.800;15.956;2022-12-07T09:59:13;14.50;;;6.40;;
67986;SDS011;54767;53.800;15.956;2022-12-07T10:01:47;12.80;;;6.60;;
67986;SDS011;54767;53.800;15.956;2022-12-07T10:04:24;11.50;;;6.30;;
67986;SDS011;54767;53.800;15.956;2022-12-07T10:06:54;14.70;;;6.20;;
67986;SDS011;54767;53.800;15.956;2022-12-07T10:09:22;12.40;;;5.90;;
67986;SDS011;54767;53.800;15.956;2022-12-07T10:14:27;12.90;;;6.70;;
67986;SDS011;54767;53.800;15.956;2022-12-07T10:22:48;17.90;;;8.30;;
67986;SDS011;54767;53.800;15.956;2022-12-07T10:25:34;16.90;;;8.40;;
67986;SDS011;54767;53.800;15.956;2022-12-07T10:36:35;24.40;;;9.60;;
67986;SDS011;54767;53.800;15.956;2022-12-07T10:42:00;29.30;;;10.90;;
67986;SDS011;54767;53.800;15.956;2022-12-07T10:44:30;32.30;;;10.50;;
67986;SDS011;54767;53.800;15.956;2022-12-07T10:47:03;30.00;;;10.60;;
67986;SDS011;54767;53.800;15.956;2022-12-07T10:49:39;26.30;;;9.90;;
67986;SDS011;54767;53.800;15.956;2022-12-07T10:55:36;29.90;;;10.30;;
67986;SDS011;54767;53.800;15.956;2022-12-07T10:58:19;29.60;;;11.30;;
67986;SDS011;54767;53.800;15.956;2022-12-07T11:21:20;32.40;;;12.90;;
67986;SDS011;54767;53.800;15.956;2022-12-07T11:24:07;28.60;;;11.40;;
67986;SDS011;54767;53.800;15.956;2022-12-07T11:37:48;29.00;;;11.60;;
67986;SDS011;54767;53.800;15.956;2022-12-07T11:40:33;23.10;;;10.40;;
67986;SDS011;54767;53.800;15.956;2022-12-07T11:43:19;22.50;;;10.00;;
67986;SDS011;54767;53.800;15.956;2022-12-07T11:45:59;24.60;;;9.70;;
67986;SDS011;54767;53.800;15.956;2022-12-07T11:48:33;20.90;;;8.80;;
67986;SDS011;54767;53.800;15.956;2022-12-07T11:51:02;17.40;;;8.30;;
67986;SDS011;54767;53.800;15.956;2022-12-07T11:53:35;20.00;;;8.10;;
67986;SDS011;54767;53.800;15.956;2022-12-07T11:56:14;20.70;;;8.70;;
67986;SDS011;54767;53.800;15.956;2022-12-07T12:03:55;20.10;;;9.00;;
67986;SDS011;54767;53.800;15.956;2022-12-07T12:06:29;19.20;;;8.40;;
67986;SDS011;54767;53.800;15.956;2022-12-07T12:21:06;15.80;;;7.10;;
67986;SDS011;54767;53.800;15.956;2022-12-07T12:26:20;13.70;;;7.70;;
67986;SDS011;54767;53.800;15.956;2022-12-07T12:31:40;15.60;;;8.20;;
67986;SDS011;54767;53.800;15.956;2022-12-07T12:36:59;17.20;;;9.00;;
67986;SDS011;54767;53.800;15.956;2022-12-07T12:39:28;14.50;;;8.10;;
67986;SDS011;54767;53.800;15.956;2022-12-07T12:41:56;13.80;;;7.20;;
67986;SDS011;54767;53.800;15.956;2022-12-07T12:57:33;12.80;;;7.00;;
67986;SDS011;54767;53.800;15.956;2022-12-07T13:00:15;12.30;;;7.30;;
67986;SDS011;54767;53.800;15.956;2022-12-07T13:02:49;13.40;;;7.20;;
67986;SDS011;54767;53.800;15.956;2022-12-07T13:05:22;12.90;;;7.80;;
67986;SDS011;54767;53.800;15.956;2022-12-07T13:10:35;19.40;;;13.20;;
67986;SDS011;54767;53.800;15.956;2022-12-07T13:15:39;13.10;;;8.50;;
67986;SDS011;54767;53.800;15.956;2022-12-07T13:28:46;99.00;;;14.20;;
67986;SDS011;54767;53.800;15.956;2022-12-07T13:31:38;17.30;;;7.80;;
67986;SDS011;54767;53.800;15.956;2022-12-07T13:36:59;12.10;;;6.80;;
67986;SDS011;54767;53.800;15.956;2022-12-07T13:39:32;12.80;;;7.40;;
67986;SDS011;54767;53.800;15.956;2022-12-07T13:42:07;12.10;;;6.70;;
67986;SDS011;54767;53.800;15.956;2022-12-07T13:44:42;14.50;;;8.60;;
67986;SDS011;54767;53.800;15.956;2022-12-07T13:47:19;12.10;;;7.00;;
67986;SDS011;54767;53.800;15.956;2022-12-07T13:50:23;13.20;;;6.70;;
67986;SDS011;54767;53.800;15.956;2022-12-07T13:53:00;11.90;;;6.70;;
67986;SDS011;54767;53.800;15.956;2022-12-07T13:55:29;10.80;;;6.70;;
67986;SDS011;54767;53.800;15.956;2022-12-07T13:57:58;12.60;;;7.10;;
67986;SDS011;54767;53.800;15.956;2022-12-07T14:00:28;12.40;;;6.80;;
67986;SDS011;54767;53.800;15.956;2022-12-07T14:05:28;11.90;;;6.80;;
67986;SDS011;54767;53.800;15.956;2022-12-07T14:08:02;10.90;;;6.10;;
67986;SDS011;54767;53.800;15.956;2022-12-07T14:10:38;11.60;;;6.40;;
67986;SDS011;54767;53.800;15.956;2022-12-07T14:16:02;12.10;;;6.10;;
67986;SDS011;54767;53.800;15.956;2022-12-07T14:18:38;11.10;;;6.60;;
67986;SDS011;54767;53.800;15.956;2022-12-07T14:21:14;11.40;;;5.80;;
67986;SDS011;54767;53.800;15.956;2022-12-07T14:24:02;10.00;;;5.50;;
67986;SDS011;54767;53.800;15.956;2022-12-07T14:26:49;10.90;;;5.30;;
67986;SDS011;54767;53.800;15.956;2022-12-07T14:29:18;9.90;;;5.90;;
67986;SDS011;54767;53.800;15.956;2022-12-07T14:31:47;9.30;;;5.20;;
67986;SDS011;54767;53.800;15.956;2022-12-07T14:34:15;15.10;;;7.40;;
67986;SDS011;54767;53.800;15.956;2022-12-07T14:36:44;7.40;;;4.80;;
67986;SDS011;54767;53.800;15.956;2022-12-07T14:39:12;8.60;;;4.70;;
67986;SDS011;54767;53.800;15.956;2022-12-07T14:41:40;8.40;;;4.80;;
67986;SDS011;54767;53.800;15.956;2022-12-07T14:44:19;8.60;;;5.30;;
67986;SDS011;54767;53.800;15.956;2022-12-07T14:46:58;12.20;;;6.50;;
67986;SDS011;54767;53.800;15.956;2022-12-07T14:49:47;16.00;;;8.60;;
67986;SDS011;54767;53.800;15.956;2022-12-07T14:52:23;11.10;;;6.00;;
67986;SDS011;54767;53.800;15.956;2022-12-07T14:55:23;8.20;;;5.10;;
67986;SDS011;54767;53.800;15.956;2022-12-07T14:57:52;8.70;;;5.40;;
67986;SDS011;54767;53.800;15.956;2022-12-07T15:00:23;10.10;;;5.50;;
67986;SDS011;54767;53.800;15.956;2022-12-07T15:02:53;12.00;;;6.60;;
67986;SDS011;54767;53.800;15.956;2022-12-07T15:05:22;28.90;;;7.40;;
67986;SDS011;54767;53.800;15.956;2022-12-07T15:07:51;29.00;;;9.60;;
67986;SDS011;54767;53.800;15.956;2022-12-07T15:10:21;11.00;;;5.10;;
67986;SDS011;54767;53.800;15.956;2022-12-07T15:12:51;10.90;;;5.30;;
67986;SDS011;54767;53.800;15.956;2022-12-07T15:15:19;13.20;;;5.90;;
67986;SDS011;54767;53.800;15.956;2022-12-07T15:17:48;8.00;;;4.50;;
67986;SDS011;54767;53.800;15.956;2022-12-07T15:20:17;10.60;;;5.00;;
67986;SDS011;54767;53.800;15.956;2022-12-07T15:22:45;9.00;;;5.00;;
67986;SDS011;54767;53.800;15.956;2022-12-07T15:25:13;7.50;;;4.30;;
67986;SDS011;54767;53.800;15.956;2022-12-07T15:27:42;8.00;;;5.10;;
67986;SDS011;54767;53.800;15.956;2022-12-07T15:30:11;9.20;;;4.90;;
67986;SDS011;54767;53.800;15.956;2022-12-07T15:32:39;7.90;;;4.60;;
67986;SDS011;54767;53.800;15.956;2022-12-07T15:35:08;8.50;;;4.50;;
67986;SDS011;54767;53.800;15.956;2022-12-07T15:37:36;5.90;;;3.70;;
67986;SDS011;54767;53.800;15.956;2022-12-07T15:40:05;9.40;;;4.00;;
67986;SDS011;54767;53.800;15.956;2022-12-07T15:42:35;8.40;;;4.50;;
67986;SDS011;54767;53.800;15.956;2022-12-07T15:45:04;5.60;;;3.80;;
67986;SDS011;54767;53.800;15.956;2022-12-07T15:47:36;7.10;;;4.00;;
67986;SDS011;54767;53.800;15.956;2022-12-07T15:50:26;5.50;;;3.80;;
67986;SDS011;54767;53.800;15.956;2022-12-07T15:52:54;4.70;;;3.30;;
67986;SDS011;54767;53.800;15.956;2022-12-07T15:55:22;5.40;;;3.90;;
67986;SDS011;54767;53.800;15.956;2022-12-07T15:57:50;5.70;;;3.40;;
67986;SDS011;54767;53.800;15.956;2022-12-07T16:00:19;9.50;;;4.20;;
67986;SDS011;54767;53.800;15.956;2022-12-07T16:02:47;7.80;;;3.90;;
67986;SDS011;54767;53.800;15.956;2022-12-07T16:05:16;7.30;;;4.10;;
67986;SDS011;54767;53.800;15.956;2022-12-07T16:07:44;5.70;;;3.80;;
67986;SDS011;54767;53.800;15.956;2022-12-07T16:10:14;6.10;;;3.40;;
67986;SDS011;54767;53.800;15.956;2022-12-07T16:12:43;7.00;;;3.50;;
67986;SDS011;54767;53.800;15.956;2022-12-07T16:15:11;7.80;;;3.20;;
67986;SDS011;54767;53.800;15.956;2022-12-07T16:17:39;8.20;;;3.80;;
67986;SDS011;54767;53.800;15.956;2022-12-07T16:20:08;7.00;;;3.60;;
67986;SDS011;54767;53.800;15.956;2022-12-07T16:22:37;5.90;;;3.80;;
67986;SDS011;54767;53.800;15.956;2022-12-07T16:25:05;7.70;;;3.60;;
67986;SDS011;54767;53.800;15.956;2022-12-07T16:27:34;7.30;;;3.90;;
67986;SDS011;54767;53.800;15.956;2022-12-07T16:30:02;8.80;;;4.20;;
67986;SDS011;54767;53.800;15.956;2022-12-07T16:32:31;7.70;;;3.70;;
67986;SDS011;54767;53.800;15.956;2022-12-07T16:35:01;7.70;;;4.00;;
67986;SDS011;54767;53.800;15.956;2022-12-07T16:37:29;8.20;;;3.60;;
67986;SDS011;54767;53.800;15.956;2022-12-07T16:40:00;3.60;;;3.10;;
67986;SDS011;54767;53.800;15.956;2022-12-07T16:42:32;6.10;;;3.60;;
67986;SDS011;54767;53.800;15.956;2022-12-07T16:45:01;9.00;;;3.50;;
67986;SDS011;54767;53.800;15.956;2022-12-07T16:47:31;8.30;;;3.50;;
67986;SDS011;54767;53.800;15.956;2022-12-07T16:49:59;4.50;;;3.10;;
67986;SDS011;54767;53.800;15.956;2022-12-07T16:52:27;5.30;;;2.90;;
67986;SDS011;54767;53.800;15.956;2022-12-07T16:54:55;4.80;;;2.60;;
67986;SDS011;54767;53.800;15.956;2022-12-07T16:57:30;5.30;;;2.80;;
67986;SDS011;54767;53.800;15.956;2022-12-07T16:59:58;4.70;;;3.20;;
67986;SDS011;54767;53.800;15.956;2022-12-07T17:02:27;6.60;;;2.80;;
67986;SDS011;54767;53.800;15.956;2022-12-07T17:04:56;4.40;;;3.00;;
67986;SDS011;54767;53.800;15.956;2022-12-07T17:07:24;6.10;;;2.90;;
67986;SDS011;54767;53.800;15.956;2022-12-07T17:09:52;5.40;;;2.60;;
67986;SDS011;54767;53.800;15.956;2022-12-07T17:12:21;4.70;;;2.80;;
67986;SDS011;54767;53.800;15.956;2022-12-07T17:14:49;4.00;;;2.70;;
67986;SDS011;54767;53.800;15.956;2022-12-07T17:17:36;5.80;;;2.90;;
67986;SDS011;54767;53.800;15.956;2022-12-07T17:20:05;5.70;;;2.70;;
67986;SDS011;54767;53.800;15.956;2022-12-07T17:22:33;4.60;;;2.70;;